VIV473 MMMY-MMMX
Flight info
| Callsign | VIV473 |
|---|---|
| Flight time | 1h 3m |
| Altitude | 35000 |
| Route | KERGA1A KERGA UT132 DARAN DARAN3B |
| Aircraft | A320/M-SDE3FGHIRWY/LB1 |
Departure
| Time | 2026-05-06 21:28 |
|---|---|
| Airport | Monterrey International Airport (MMMY) |
Arrival
| Time | 2026-05-06 22:31 |
|---|---|
| Airport | Mexico City Benito Juárez International Airport (MMMX) |
| Time | Latitude | Longitude | Altitude | Speed | Heading |
|---|---|---|---|---|---|
| 2026-05-06 21:10 | 25.77985 | -100.11467 | 1286 ft | 0 kts | 121° |
| 2026-05-06 21:17 | 25.77987 | -100.11470 | 1286 ft | 1 kts | 121° |
| 2026-05-06 21:17 | 25.77990 | -100.11476 | 1286 ft | 1 kts | 121° |
| 2026-05-06 21:17 | 25.77995 | -100.11484 | 1284 ft | 2 kts | 121° |
| 2026-05-06 21:18 | 25.78001 | -100.11497 | 1283 ft | 1 kts | 74° |
| 2026-05-06 21:18 | 25.77997 | -100.11508 | 1282 ft | 1 kts | 22° |
| 2026-05-06 21:18 | 25.77991 | -100.11511 | 1283 ft | 0 kts | 353° |
| 2026-05-06 21:19 | 25.77992 | -100.11511 | 1283 ft | 0 kts | 353° |
| 2026-05-06 21:19 | 25.78003 | -100.11512 | 1282 ft | 0 kts | 356° |
| 2026-05-06 21:23 | 25.78006 | -100.11512 | 1281 ft | 1 kts | 357° |
| 2026-05-06 21:23 | 25.78023 | -100.11506 | 1281 ft | 4 kts | 27° |
| 2026-05-06 21:24 | 25.78055 | -100.11491 | 1281 ft | 6 kts | 2° |
| 2026-05-06 21:24 | 25.78090 | -100.11527 | 1281 ft | 8 kts | 305° |
| 2026-05-06 21:24 | 25.78112 | -100.11567 | 1281 ft | 10 kts | 301° |
| 2026-05-06 21:24 | 25.78153 | -100.11646 | 1281 ft | 13 kts | 300° |
| 2026-05-06 21:25 | 25.78208 | -100.11749 | 1282 ft | 10 kts | 301° |
| 2026-05-06 21:25 | 25.78231 | -100.11790 | 1281 ft | 9 kts | 302° |
| 2026-05-06 21:25 | 25.78290 | -100.11800 | 1281 ft | 9 kts | 27° |
| 2026-05-06 21:25 | 25.78300 | -100.11793 | 1281 ft | 2 kts | 32° |
| 2026-05-06 21:26 | 25.78320 | -100.11778 | 1281 ft | 5 kts | 35° |
| 2026-05-06 21:26 | 25.78355 | -100.11752 | 1281 ft | 7 kts | 34° |
| 2026-05-06 21:26 | 25.78393 | -100.11684 | 1281 ft | 10 kts | 103° |
| 2026-05-06 21:26 | 25.78371 | -100.11633 | 1281 ft | 12 kts | 120° |
| 2026-05-06 21:27 | 25.78285 | -100.11476 | 1281 ft | 53 kts | 122° |
| 2026-05-06 21:27 | 25.77974 | -100.10915 | 1281 ft | 116 kts | 121° |
| 2026-05-06 21:27 | 25.77465 | -100.09988 | 1311 ft | 160 kts | 121° |
| 2026-05-06 21:27 | 25.76880 | -100.08905 | 1873 ft | 164 kts | 123° |
| 2026-05-06 21:28 | 25.76288 | -100.07831 | 2628 ft | 162 kts | 123° |
| 2026-05-06 21:28 | 25.75684 | -100.06741 | 3187 ft | 172 kts | 123° |
| 2026-05-06 21:28 | 25.75013 | -100.05538 | 3557 ft | 194 kts | 123° |
| 2026-05-06 21:28 | 25.74271 | -100.04200 | 3899 ft | 217 kts | 122° |
| 2026-05-06 21:29 | 25.73447 | -100.02708 | 4290 ft | 238 kts | 123° |
| 2026-05-06 21:29 | 25.72549 | -100.01081 | 4750 ft | 260 kts | 122° |
| 2026-05-06 21:29 | 25.71574 | -99.99338 | 5563 ft | 268 kts | 126° |
| 2026-05-06 21:29 | 25.70158 | -99.98004 | 6440 ft | 271 kts | 159° |
| 2026-05-06 21:30 | 25.68311 | -99.97583 | 7373 ft | 272 kts | 178° |
| 2026-05-06 21:30 | 25.66407 | -99.97630 | 8301 ft | 275 kts | 185° |
| 2026-05-06 21:30 | 25.64513 | -99.97821 | 9185 ft | 278 kts | 187° |
| 2026-05-06 21:30 | 25.62566 | -99.98023 | 10034 ft | 282 kts | 186° |
| 2026-05-06 21:31 | 25.60574 | -99.98182 | 10686 ft | 294 kts | 184° |
| 2026-05-06 21:31 | 25.58465 | -99.98294 | 10959 ft | 317 kts | 183° |
| 2026-05-06 21:31 | 25.56191 | -99.98362 | 11445 ft | 331 kts | 182° |
| 2026-05-06 21:31 | 25.53869 | -99.98398 | 12170 ft | 336 kts | 181° |
| 2026-05-06 21:32 | 25.51541 | -99.98417 | 12876 ft | 339 kts | 181° |
| 2026-05-06 21:32 | 25.46752 | -99.98446 | 14278 ft | 346 kts | 181° |
| 2026-05-06 21:32 | 25.44306 | -99.98464 | 14667 ft | 356 kts | 183° |
| 2026-05-06 21:33 | 25.41838 | -99.98481 | 15161 ft | 360 kts | 184° |
| 2026-05-06 21:33 | 25.39326 | -99.98497 | 15892 ft | 357 kts | 183° |
| 2026-05-06 21:33 | 25.36841 | -99.98513 | 16650 ft | 354 kts | 183° |
| 2026-05-06 21:33 | 25.34406 | -99.98545 | 17272 ft | 354 kts | 184° |
| 2026-05-06 21:34 | 25.31939 | -99.98635 | 17886 ft | 355 kts | 185° |
| 2026-05-06 21:34 | 25.29457 | -99.98761 | 18493 ft | 356 kts | 185° |
| 2026-05-06 21:34 | 25.26966 | -99.98902 | 19042 ft | 359 kts | 186° |
| 2026-05-06 21:34 | 25.24490 | -99.99043 | 19570 ft | 362 kts | 186° |
| 2026-05-06 21:35 | 25.21963 | -99.99179 | 20069 ft | 365 kts | 186° |
| 2026-05-06 21:35 | 25.19406 | -99.99306 | 20571 ft | 368 kts | 185° |
| 2026-05-06 21:35 | 25.16852 | -99.99429 | 21034 ft | 372 kts | 186° |
| 2026-05-06 21:35 | 25.14259 | -99.99555 | 21485 ft | 374 kts | 185° |
| 2026-05-06 21:36 | 25.11633 | -99.99679 | 21937 ft | 378 kts | 185° |
| 2026-05-06 21:36 | 25.08989 | -99.99800 | 22413 ft | 381 kts | 185° |
| 2026-05-06 21:36 | 25.06324 | -99.99921 | 22850 ft | 384 kts | 186° |
| 2026-05-06 21:36 | 25.03676 | -100.00040 | 23235 ft | 386 kts | 186° |
| 2026-05-06 21:37 | 25.00978 | -100.00165 | 23645 ft | 388 kts | 186° |
| 2026-05-06 21:37 | 24.98265 | -100.00291 | 24023 ft | 391 kts | 186° |
| 2026-05-06 21:37 | 24.95524 | -100.00421 | 24416 ft | 394 kts | 186° |
| 2026-05-06 21:37 | 24.92758 | -100.00376 | 24783 ft | 399 kts | 181° |
| 2026-05-06 21:38 | 24.90001 | -100.00218 | 25186 ft | 402 kts | 181° |
| 2026-05-06 21:38 | 24.87180 | -100.00053 | 25589 ft | 405 kts | 181° |
| 2026-05-06 21:38 | 24.84355 | -99.99889 | 25900 ft | 407 kts | 180° |
| 2026-05-06 21:38 | 24.81505 | -99.99722 | 26067 ft | 412 kts | 181° |
| 2026-05-06 21:39 | 24.78676 | -99.99557 | 26381 ft | 413 kts | 181° |
| 2026-05-06 21:39 | 24.75790 | -99.99392 | 26736 ft | 415 kts | 181° |
| 2026-05-06 21:39 | 24.72888 | -99.99229 | 27069 ft | 416 kts | 181° |
| 2026-05-06 21:39 | 24.69977 | -99.99068 | 27370 ft | 419 kts | 181° |
| 2026-05-06 21:40 | 24.67076 | -99.98905 | 27688 ft | 422 kts | 181° |
| 2026-05-06 21:40 | 24.64133 | -99.98738 | 28036 ft | 424 kts | 181° |
| 2026-05-06 21:40 | 24.61172 | -99.98570 | 28394 ft | 427 kts | 181° |
| 2026-05-06 21:40 | 24.58192 | -99.98401 | 28749 ft | 429 kts | 181° |
| 2026-05-06 21:41 | 24.55201 | -99.98231 | 29085 ft | 431 kts | 181° |
| 2026-05-06 21:41 | 24.52232 | -99.98063 | 29428 ft | 434 kts | 181° |
| 2026-05-06 21:41 | 24.49201 | -99.97891 | 29773 ft | 436 kts | 181° |
| 2026-05-06 21:41 | 24.46154 | -99.97715 | 30119 ft | 438 kts | 181° |
| 2026-05-06 21:42 | 24.43127 | -99.97538 | 30437 ft | 440 kts | 181° |
| 2026-05-06 21:42 | 24.40049 | -99.97362 | 30766 ft | 442 kts | 181° |
| 2026-05-06 21:42 | 24.36954 | -99.97188 | 31119 ft | 444 kts | 181° |
| 2026-05-06 21:42 | 24.33863 | -99.97014 | 31534 ft | 443 kts | 181° |
| 2026-05-06 21:43 | 24.30779 | -99.96841 | 31936 ft | 443 kts | 181° |
| 2026-05-06 21:43 | 24.27741 | -99.96670 | 32356 ft | 443 kts | 181° |
| 2026-05-06 21:43 | 24.24659 | -99.96495 | 32745 ft | 443 kts | 181° |
| 2026-05-06 21:43 | 24.21576 | -99.96321 | 33167 ft | 443 kts | 181° |
| 2026-05-06 21:44 | 24.18484 | -99.96146 | 33567 ft | 444 kts | 181° |
| 2026-05-06 21:44 | 24.15399 | -99.95970 | 33985 ft | 443 kts | 181° |
| 2026-05-06 21:44 | 24.12318 | -99.95795 | 34355 ft | 443 kts | 181° |
| 2026-05-06 21:44 | 24.09233 | -99.95620 | 34717 ft | 443 kts | 181° |
| 2026-05-06 21:45 | 24.03136 | -99.95274 | 34852 ft | 439 kts | 181° |
| 2026-05-06 21:45 | 23.97047 | -99.94927 | 34880 ft | 437 kts | 181° |
| 2026-05-06 21:46 | 23.90967 | -99.94584 | 34878 ft | 437 kts | 181° |
| 2026-05-06 21:46 | 23.84771 | -99.94243 | 34872 ft | 453 kts | 181° |
| 2026-05-06 21:47 | 23.78451 | -99.93889 | 34869 ft | 458 kts | 181° |
| 2026-05-06 21:47 | 23.72051 | -99.93529 | 34871 ft | 459 kts | 181° |
| 2026-05-06 21:48 | 23.65685 | -99.93168 | 34868 ft | 460 kts | 181° |
| 2026-05-06 21:48 | 23.59290 | -99.92811 | 34868 ft | 459 kts | 181° |
| 2026-05-06 21:49 | 23.52919 | -99.92453 | 34871 ft | 460 kts | 181° |
| 2026-05-06 21:49 | 23.46502 | -99.92095 | 34872 ft | 460 kts | 181° |
| 2026-05-06 21:50 | 23.40137 | -99.91740 | 34888 ft | 460 kts | 181° |
| 2026-05-06 21:50 | 23.33712 | -99.91374 | 34891 ft | 460 kts | 181° |
| 2026-05-06 21:51 | 23.27342 | -99.91015 | 34913 ft | 460 kts | 181° |
| 2026-05-06 21:51 | 23.20939 | -99.90663 | 34917 ft | 461 kts | 181° |
| 2026-05-06 21:52 | 23.14515 | -99.90306 | 34913 ft | 461 kts | 180° |
| 2026-05-06 21:52 | 23.08125 | -99.89954 | 34909 ft | 461 kts | 180° |
| 2026-05-06 21:53 | 23.01720 | -99.89596 | 34933 ft | 461 kts | 180° |
| 2026-05-06 21:53 | 22.95295 | -99.89235 | 34936 ft | 461 kts | 180° |
| 2026-05-06 21:54 | 22.88903 | -99.88873 | 34939 ft | 462 kts | 180° |
| 2026-05-06 21:54 | 22.82473 | -99.88517 | 34940 ft | 461 kts | 180° |
| 2026-05-06 21:55 | 22.76090 | -99.88168 | 34954 ft | 462 kts | 180° |
| 2026-05-06 21:55 | 22.69644 | -99.87810 | 34966 ft | 461 kts | 180° |
| 2026-05-06 21:56 | 22.63253 | -99.87457 | 34971 ft | 461 kts | 180° |
| 2026-05-06 21:56 | 22.56871 | -99.87107 | 34980 ft | 461 kts | 180° |
| 2026-05-06 21:57 | 22.50449 | -99.86749 | 34986 ft | 461 kts | 180° |
| 2026-05-06 21:57 | 22.44052 | -99.86401 | 34989 ft | 461 kts | 180° |
| 2026-05-06 21:58 | 22.37624 | -99.86051 | 35002 ft | 461 kts | 180° |
| 2026-05-06 21:58 | 22.31231 | -99.85700 | 35006 ft | 461 kts | 180° |
| 2026-05-06 21:59 | 22.24799 | -99.85340 | 35009 ft | 461 kts | 180° |
| 2026-05-06 21:59 | 22.18406 | -99.84986 | 35059 ft | 462 kts | 180° |
| 2026-05-06 22:00 | 22.11975 | -99.84632 | 35063 ft | 462 kts | 180° |
| 2026-05-06 22:00 | 22.05582 | -99.84290 | 35078 ft | 461 kts | 180° |
| 2026-05-06 22:01 | 21.99137 | -99.83938 | 35096 ft | 461 kts | 180° |
| 2026-05-06 22:01 | 21.92759 | -99.83589 | 35107 ft | 461 kts | 180° |
| 2026-05-06 22:02 | 21.86315 | -99.83236 | 35109 ft | 461 kts | 180° |
| 2026-05-06 22:02 | 21.79948 | -99.82887 | 35105 ft | 461 kts | 180° |
| 2026-05-06 22:03 | 21.73519 | -99.82537 | 35105 ft | 461 kts | 180° |
| 2026-05-06 22:03 | 21.67120 | -99.82188 | 35110 ft | 461 kts | 180° |
| 2026-05-06 22:04 | 21.60683 | -99.81836 | 35118 ft | 461 kts | 180° |
| 2026-05-06 22:04 | 21.54290 | -99.81483 | 35122 ft | 461 kts | 180° |
| 2026-05-06 22:05 | 21.47867 | -99.81134 | 35124 ft | 462 kts | 180° |
| 2026-05-06 22:05 | 21.41483 | -99.80784 | 35127 ft | 461 kts | 179° |
| 2026-05-06 22:06 | 21.35038 | -99.80435 | 35134 ft | 462 kts | 180° |
| 2026-05-06 22:06 | 21.28635 | -99.80091 | 35139 ft | 462 kts | 179° |
| 2026-05-06 22:07 | 21.22187 | -99.79747 | 35162 ft | 462 kts | 179° |
| 2026-05-06 22:07 | 21.15759 | -99.79395 | 35162 ft | 463 kts | 179° |
| 2026-05-06 22:08 | 21.09351 | -99.79044 | 35161 ft | 464 kts | 179° |
| 2026-05-06 22:08 | 21.02908 | -99.78699 | 35163 ft | 464 kts | 179° |
| 2026-05-06 22:09 | 20.96421 | -99.78444 | 35167 ft | 464 kts | 180° |
| 2026-05-06 22:09 | 20.89984 | -99.78262 | 35173 ft | 465 kts | 180° |
| 2026-05-06 22:10 | 20.83523 | -99.78069 | 35206 ft | 465 kts | 180° |
| 2026-05-06 22:10 | 20.78179 | -99.77887 | 34315 ft | 462 kts | 180° |
| 2026-05-06 22:11 | 20.73867 | -99.77736 | 33024 ft | 469 kts | 180° |
| 2026-05-06 22:11 | 20.71658 | -99.77659 | 32499 ft | 469 kts | 180° |
| 2026-05-06 22:11 | 20.68455 | -99.77548 | 31928 ft | 463 kts | 180° |
| 2026-05-06 22:11 | 20.65238 | -99.77434 | 31315 ft | 460 kts | 180° |
| 2026-05-06 22:12 | 20.62050 | -99.77323 | 30715 ft | 455 kts | 180° |
| 2026-05-06 22:12 | 20.58897 | -99.77215 | 30124 ft | 450 kts | 180° |
| 2026-05-06 22:12 | 20.55775 | -99.77107 | 29501 ft | 447 kts | 180° |
| 2026-05-06 22:12 | 20.52706 | -99.76999 | 28903 ft | 442 kts | 180° |
| 2026-05-06 22:13 | 20.49638 | -99.76894 | 28321 ft | 437 kts | 179° |
| 2026-05-06 22:13 | 20.46613 | -99.76794 | 27758 ft | 431 kts | 179° |
| 2026-05-06 22:13 | 20.43625 | -99.76695 | 27180 ft | 427 kts | 179° |
| 2026-05-06 22:13 | 20.40667 | -99.76596 | 26623 ft | 422 kts | 179° |
| 2026-05-06 22:14 | 20.37781 | -99.76498 | 26085 ft | 417 kts | 179° |
| 2026-05-06 22:14 | 20.34891 | -99.76399 | 25584 ft | 411 kts | 179° |
| 2026-05-06 22:14 | 20.32041 | -99.76301 | 25075 ft | 406 kts | 179° |
| 2026-05-06 22:14 | 20.29226 | -99.76205 | 24580 ft | 401 kts | 178° |
| 2026-05-06 22:15 | 20.26489 | -99.76114 | 24111 ft | 396 kts | 178° |
| 2026-05-06 22:15 | 20.23741 | -99.76021 | 23644 ft | 391 kts | 178° |
| 2026-05-06 22:15 | 20.21029 | -99.75882 | 23179 ft | 387 kts | 173° |
| 2026-05-06 22:15 | 20.18406 | -99.75408 | 22699 ft | 384 kts | 169° |
| 2026-05-06 22:16 | 20.15790 | -99.74883 | 22250 ft | 380 kts | 169° |
| 2026-05-06 22:16 | 20.13193 | -99.74364 | 21797 ft | 376 kts | 169° |
| 2026-05-06 22:16 | 20.10628 | -99.73853 | 21324 ft | 373 kts | 169° |
| 2026-05-06 22:16 | 20.08083 | -99.73347 | 20850 ft | 370 kts | 169° |
| 2026-05-06 22:17 | 20.05588 | -99.72851 | 20399 ft | 367 kts | 169° |
| 2026-05-06 22:17 | 20.03077 | -99.72355 | 19946 ft | 366 kts | 169° |
| 2026-05-06 22:17 | 20.00577 | -99.71858 | 19488 ft | 363 kts | 169° |
| 2026-05-06 22:17 | 19.98091 | -99.71364 | 19023 ft | 361 kts | 169° |
| 2026-05-06 22:18 | 19.95654 | -99.70880 | 18576 ft | 360 kts | 169° |
| 2026-05-06 22:18 | 19.93172 | -99.70388 | 17918 ft | 363 kts | 168° |
| 2026-05-06 22:18 | 19.90694 | -99.69897 | 17471 ft | 358 kts | 168° |
| 2026-05-06 22:18 | 19.88276 | -99.69416 | 17255 ft | 347 kts | 168° |
| 2026-05-06 22:19 | 19.85998 | -99.68835 | 17112 ft | 335 kts | 159° |
| 2026-05-06 22:19 | 19.83967 | -99.67728 | 17034 ft | 321 kts | 144° |
| 2026-05-06 22:19 | 19.82291 | -99.66156 | 17055 ft | 321 kts | 130° |
| 2026-05-06 22:19 | 19.80960 | -99.64242 | 17059 ft | 321 kts | 125° |
| 2026-05-06 22:20 | 19.79682 | -99.62291 | 17064 ft | 321 kts | 125° |
| 2026-05-06 22:20 | 19.78438 | -99.60400 | 17066 ft | 309 kts | 125° |
| 2026-05-06 22:20 | 19.77232 | -99.58554 | 17021 ft | 299 kts | 124° |
| 2026-05-06 22:20 | 19.76114 | -99.56732 | 16826 ft | 296 kts | 122° |
| 2026-05-06 22:21 | 19.75023 | -99.54877 | 16625 ft | 294 kts | 122° |
| 2026-05-06 22:21 | 19.73949 | -99.53027 | 16425 ft | 293 kts | 122° |
| 2026-05-06 22:21 | 19.72895 | -99.51208 | 16239 ft | 292 kts | 122° |
| 2026-05-06 22:21 | 19.71826 | -99.49369 | 16055 ft | 292 kts | 122° |
| 2026-05-06 22:22 | 19.70754 | -99.47536 | 15863 ft | 291 kts | 122° |
| 2026-05-06 22:22 | 19.69679 | -99.45709 | 15673 ft | 291 kts | 122° |
| 2026-05-06 22:22 | 19.68602 | -99.43889 | 15477 ft | 290 kts | 122° |
| 2026-05-06 22:22 | 19.67542 | -99.42100 | 15289 ft | 289 kts | 122° |
| 2026-05-06 22:23 | 19.66468 | -99.40285 | 15093 ft | 289 kts | 122° |
| 2026-05-06 22:23 | 19.65399 | -99.38482 | 14902 ft | 288 kts | 122° |
| 2026-05-06 22:23 | 19.64340 | -99.36697 | 14726 ft | 286 kts | 122° |
| 2026-05-06 22:23 | 19.63293 | -99.34925 | 14534 ft | 288 kts | 122° |
| 2026-05-06 22:24 | 19.62235 | -99.33125 | 14342 ft | 286 kts | 122° |
| 2026-05-06 22:24 | 19.61186 | -99.31349 | 14203 ft | 280 kts | 122° |
| 2026-05-06 22:24 | 19.60135 | -99.29635 | 14106 ft | 269 kts | 128° |
| 2026-05-06 22:24 | 19.58822 | -99.28278 | 13857 ft | 265 kts | 143° |
| 2026-05-06 22:25 | 19.57331 | -99.27121 | 13513 ft | 265 kts | 143° |
| 2026-05-06 22:25 | 19.55834 | -99.25964 | 13219 ft | 264 kts | 143° |
| 2026-05-06 22:25 | 19.54371 | -99.24828 | 12914 ft | 263 kts | 142° |
| 2026-05-06 22:25 | 19.52780 | -99.23860 | 12581 ft | 264 kts | 160° |
| 2026-05-06 22:26 | 19.50972 | -99.23486 | 12269 ft | 264 kts | 178° |
| 2026-05-06 22:26 | 19.49165 | -99.23465 | 11957 ft | 256 kts | 178° |
| 2026-05-06 22:26 | 19.47431 | -99.23441 | 11671 ft | 247 kts | 178° |
| 2026-05-06 22:26 | 19.45733 | -99.23413 | 11381 ft | 239 kts | 178° |
| 2026-05-06 22:27 | 19.44115 | -99.23385 | 11130 ft | 225 kts | 178° |
| 2026-05-06 22:27 | 19.42594 | -99.23356 | 10869 ft | 210 kts | 178° |
| 2026-05-06 22:27 | 19.41219 | -99.23330 | 10634 ft | 191 kts | 178° |
| 2026-05-06 22:27 | 19.39896 | -99.23121 | 10405 ft | 193 kts | 160° |
| 2026-05-06 22:28 | 19.38740 | -99.22426 | 10178 ft | 190 kts | 139° |
| 2026-05-06 22:28 | 19.37909 | -99.21344 | 9948 ft | 190 kts | 118° |
| 2026-05-06 22:28 | 19.37499 | -99.20020 | 9730 ft | 190 kts | 97° |
| 2026-05-06 22:28 | 19.37556 | -99.18652 | 9505 ft | 188 kts | 78° |
| 2026-05-06 22:29 | 19.38068 | -99.17376 | 9276 ft | 188 kts | 59° |
| 2026-05-06 22:29 | 19.38743 | -99.16193 | 9052 ft | 181 kts | 59° |
| 2026-05-06 22:29 | 19.39358 | -99.15101 | 8839 ft | 166 kts | 60° |
| 2026-05-06 22:29 | 19.39938 | -99.14071 | 8597 ft | 160 kts | 62° |
| 2026-05-06 22:30 | 19.40498 | -99.13078 | 8363 ft | 158 kts | 63° |
| 2026-05-06 22:30 | 19.41060 | -99.12074 | 8131 ft | 158 kts | 63° |
| 2026-05-06 22:30 | 19.41606 | -99.11069 | 7944 ft | 157 kts | 62° |
| 2026-05-06 22:30 | 19.42173 | -99.10074 | 7666 ft | 157 kts | 62° |
| 2026-05-06 22:31 | 19.42724 | -99.09101 | 7449 ft | 155 kts | 62° |
| 2026-05-06 22:31 | 19.43264 | -99.08135 | 7334 ft | 139 kts | 60° |
| 2026-05-06 22:31 | 19.43680 | -99.07395 | 7330 ft | 92 kts | 58° |
| 2026-05-06 22:31 | 19.43927 | -99.06974 | 7333 ft | 40 kts | 58° |
| 2026-05-06 22:32 | 19.44011 | -99.06845 | 7333 ft | 16 kts | 19° |
| 2026-05-06 22:32 | 19.44091 | -99.06894 | 7344 ft | 11 kts | 287° |
| 2026-05-06 22:32 | 19.44058 | -99.06968 | 7346 ft | 12 kts | 238° |
| 2026-05-06 22:32 | 19.44012 | -99.07045 | 7346 ft | 13 kts | 239° |
| 2026-05-06 22:33 | 19.43961 | -99.07136 | 7345 ft | 15 kts | 239° |
| 2026-05-06 22:33 | 19.43904 | -99.07240 | 7345 ft | 17 kts | 239° |
| 2026-05-06 22:33 | 19.43841 | -99.07351 | 7345 ft | 16 kts | 238° |
| 2026-05-06 22:33 | 19.43791 | -99.07439 | 7344 ft | 14 kts | 240° |
| 2026-05-06 22:34 | 19.43740 | -99.07531 | 7344 ft | 15 kts | 239° |
| 2026-05-06 22:34 | 19.43695 | -99.07614 | 7344 ft | 12 kts | 240° |
| 2026-05-06 22:34 | 19.43652 | -99.07691 | 7345 ft | 12 kts | 239° |
| 2026-05-06 22:34 | 19.43613 | -99.07762 | 7345 ft | 11 kts | 240° |
| 2026-05-06 22:35 | 19.43572 | -99.07837 | 7345 ft | 12 kts | 239° |
| 2026-05-06 22:35 | 19.43526 | -99.07918 | 7345 ft | 13 kts | 239° |
| 2026-05-06 22:35 | 19.43475 | -99.08007 | 7345 ft | 15 kts | 238° |
| 2026-05-06 22:35 | 19.43419 | -99.08102 | 7344 ft | 15 kts | 238° |
| 2026-05-06 22:36 | 19.43372 | -99.08185 | 7344 ft | 12 kts | 240° |
| 2026-05-06 22:36 | 19.43328 | -99.08265 | 7344 ft | 13 kts | 239° |
| 2026-05-06 22:36 | 19.43278 | -99.08355 | 7344 ft | 15 kts | 241° |
| 2026-05-06 22:36 | 19.43225 | -99.08456 | 7344 ft | 15 kts | 240° |
| 2026-05-06 22:37 | 19.43169 | -99.08559 | 7344 ft | 15 kts | 239° |
| 2026-05-06 22:37 | 19.43154 | -99.08605 | 7346 ft | 1 kts | 295° |
| 2026-05-06 22:37 | 19.43155 | -99.08606 | 7346 ft | 0 kts | 309° |
| 2026-05-06 22:37 | 19.43157 | -99.08606 | 7346 ft | 1 kts | 327° |
| 2026-05-06 22:38 | 19.43202 | -99.08619 | 7351 ft | 8 kts | 345° |
| 2026-05-06 22:38 | 19.43235 | -99.08627 | 7354 ft | 0 kts | 347° |